Villa Real, Puerto Rico
Current Conditions -  °F | °C
As of 1:50 PM on Friday 31 Oct 2014 (Local Time) from TJBQ Reporting Station
Thunderstorm Thunderstorm  
Wind Chill: 79°   Ceiling: 1800
Heat Index: 82°   Visibility: 3mi
Dew Point: 75°   Wind: 0mph
Humidity: 89%   Direction: NA
Pressure: 29.87"   Gusts: NA
Location:  18.0849°N, 67.1633°W
Report Text: TJBQ 311750Z 00000KT 3SM +VCTSRA SCT013 BKN018 26/24 A2987 RMK LTG DSNT SE -RWY26 - ATIS R
Loading
Personal Weather Stations






























Interactive Weather Map
Tropical Storm Tracking
New forecast layout! Learn more

10-Day Weather Forecast

Advertisements
Track Severe Weather on mobile